Time;durP1;ratioP1;P1;durP2;ratioP2;P2;SDS_P1;SDS_P2;PMS_P1;PMS_P2;Temp;Humidity;BMP_temperature;BMP_pressure;BME280_temperature;BME280_humidity;BME280_pressure;Samples;Min_cycle;Max_cycle;Signal;HPM_P1;HPM_P2
2023/10/10 00:01:07;;;;;;;37.37;22.37;;;;;;;16.48;88.87;101771.25;5033023;28;20262;-71
2023/10/10 00:03:39;;;;;;;47.73;25.03;;;;;;;16.46;88.91;101772.25;5033170;28;20199;-71
2023/10/10 00:06:08;;;;;;;43.47;23.50;;;;;;;16.44;89.16;101782.38;5033115;28;20180;-71
2023/10/10 00:08:40;;;;;;;45.33;22.73;;;;;;;16.39;89.22;101778.47;5033047;28;20678;-71
2023/10/10 00:11:14;;;;;;;38.17;22.80;;;;;;;16.39;89.26;101770.38;5033335;28;20227;-71
2023/10/10 00:14:04;;;;;;;35.47;21.87;;;;;;;16.38;89.20;101774.94;5032930;28;20180;-71
2023/10/10 00:16:35;;;;;;;45.83;21.57;;;;;;;16.33;89.47;101769.22;5032987;28;20180;-71
2023/10/10 00:19:43;;;;;;;42.23;22.33;;;;;;;16.43;89.21;101769.03;5033279;28;20180;-71
2023/10/10 00:21:57;;;;;;;38.50;22.87;;;;;;;16.34;89.22;101770.88;5031665;28;20724;-71
2023/10/10 00:24:30;;;;;;;35.13;22.40;;;;;;;16.31;89.21;101770.34;5033012;28;20590;-71
2023/10/10 00:27:07;;;;;;;45.57;22.70;;;;;;;16.30;89.44;101766.81;5032609;28;20223;-71
2023/10/10 00:29:36;;;;;;;36.77;22.07;;;;;;;16.24;89.88;101764.78;5035112;28;20242;-71
2023/10/10 00:32:13;;;;;;;38.73;22.20;;;;;;;16.30;89.23;101756.03;5036880;28;20302;-71
2023/10/10 00:34:39;;;;;;;37.17;21.53;;;;;;;16.25;89.29;101760.25;5035028;28;20294;-71
2023/10/10 00:37:11;;;;;;;32.77;20.53;;;;;;;16.18;89.56;101759.19;5036209;28;20184;-71
2023/10/10 00:39:39;;;;;;;29.57;20.90;;;;;;;16.08;89.79;101764.72;5034933;28;20191;-71
2023/10/10 00:42:08;;;;;;;33.10;21.17;;;;;;;15.99;89.75;101768.38;5036048;28;20212;-71
2023/10/10 00:44:37;;;;;;;28.23;19.70;;;;;;;15.95;89.91;101769.72;5036091;28;20172;-71
2023/10/10 00:47:13;;;;;;;19.47;15.97;;;;;;;15.89;90.08;101765.81;5036241;28;20525;-71
2023/10/10 00:49:44;;;;;;;20.50;15.87;;;;;;;15.85;90.08;101759.03;5034620;28;20198;-71
2023/10/10 00:52:15;;;;;;;23.77;16.50;;;;;;;15.83;90.27;101763.72;5035865;28;20204;-71
2023/10/10 00:54:45;;;;;;;18.63;14.90;;;;;;;15.82;90.31;101766.63;5036145;28;20700;-71
2023/10/10 00:57:19;;;;;;;17.07;14.93;;;;;;;15.81;90.23;101763.06;5036090;28;20188;-71
2023/10/10 00:59:48;;;;;;;17.47;15.63;;;;;;;15.79;90.18;101761.53;5036300;28;20638;-71
2023/10/10 01:02:20;;;;;;;15.97;13.47;;;;;;;15.74;90.18;101759.31;5035621;28;20211;-71
2023/10/10 01:07:25;;;;;;;18.83;15.30;;;;;;;15.62;90.06;101757.88;5035907;28;20200;-71
2023/10/10 01:09:56;;;;;;;18.83;13.40;;;;;;;15.57;90.37;101746.75;5035808;28;20191;-71
2023/10/10 01:12:39;;;;;;;20.63;14.47;;;;;;;15.54;89.96;101747.91;5034161;28;20219;-71
2023/10/10 01:15:16;;;;;;;20.60;14.07;;;;;;;15.53;90.28;101745.38;5035507;28;20246;-71
2023/10/10 01:17:43;;;;;;;18.60;15.63;;;;;;;15.51;90.18;101748.22;5035732;28;20179;-71
2023/10/10 01:20:34;;;;;;;18.70;13.93;;;;;;;15.52;90.26;101749.94;5035871;28;20652;-71
2023/10/10 01:23:02;;;;;;;15.07;13.67;;;;;;;15.50;90.12;101749.22;5035821;28;20203;-71
2023/10/10 01:34:09;;;;;;;15.57;13.27;;;;;;;15.46;89.85;101745.13;5035488;28;20184;-71
2023/10/10 01:36:12;;;;;;;17.73;13.83;;;;;;;15.44;89.79;101739.06;5032262;28;20230;-71
2023/10/10 01:38:41;;;;;;;18.63;14.03;;;;;;;15.42;89.70;101751.84;5033712;28;20726;-71
2023/10/10 01:41:31;;;;;;;12.57;11.53;;;;;;;15.39;89.61;101751.31;5034411;28;20211;-70
2023/10/10 01:44:10;;;;;;;11.97;11.10;;;;;;;15.36;89.65;101752.47;5034977;28;20194;-70
2023/10/10 01:46:38;;;;;;;11.50;10.60;;;;;;;15.34;89.66;101742.84;5035178;28;20597;-70
2023/10/10 01:49:13;;;;;;;14.93;13.40;;;;;;;15.30;89.51;101734.25;5035119;28;20207;-70
2023/10/10 01:51:42;;;;;;;24.57;17.33;;;;;;;15.26;89.35;101732.88;5034684;28;20238;-70
2023/10/10 01:54:18;;;;;;;24.37;16.27;;;;;;;15.21;89.40;101721.72;5034999;28;20188;-70
2023/10/10 01:56:45;;;;;;;18.33;15.33;;;;;;;15.16;89.25;101726.72;5035018;28;20602;-70
2023/10/10 01:59:25;;;;;;;19.10;13.40;;;;;;;15.12;89.25;101722.66;5033376;28;20218;-70
2023/10/10 02:01:54;;;;;;;16.10;13.37;;;;;;;15.06;89.21;101726.81;5033299;28;20217;-70
2023/10/10 02:04:28;;;;;;;13.20;12.07;;;;;;;15.00;88.94;101726.59;5017454;28;20690;-70
2023/10/10 02:06:57;;;;;;;29.30;20.17;;;;;;;14.94;89.09;101719.13;5034798;28;20234;-70
2023/10/10 02:11:53;;;;;;;23.03;17.87;;;;;;;14.93;89.60;101728.22;5033005;28;20227;-70
2023/10/10 02:14:25;;;;;;;20.00;17.30;;;;;;;14.90;89.18;101717.75;5034243;28;20200;-70
2023/10/10 02:16:54;;;;;;;15.33;13.50;;;;;;;14.85;89.24;101718.22;5034599;28;20180;-70
2023/10/10 02:19:32;;;;;;;23.27;17.10;;;;;;;14.78;89.04;101721.69;5034298;28;20540;-70
2023/10/10 02:22:22;;;;;;;24.50;19.17;;;;;;;14.70;88.50;101725.16;5034309;28;20215;-71
2023/10/10 02:24:54;;;;;;;24.43;17.13;;;;;;;14.64;88.67;101728.44;5032887;28;20197;-71
2023/10/10 02:27:32;;;;;;;42.40;23.93;;;;;;;14.56;89.13;101725.69;5032837;28;20202;-71
2023/10/10 02:30:04;;;;;;;37.70;22.17;;;;;;;14.53;89.12;101726.00;5034622;28;20180;-71
2023/10/10 02:32:33;;;;;;;34.07;21.27;;;;;;;14.55;89.31;101724.84;5034123;28;20579;-70
2023/10/10 02:38:06;;;;;;;17.67;15.07;;;;;;;14.54;89.51;101709.72;5012373;28;20200;-70
2023/10/10 02:40:42;;;;;;;21.57;16.63;;;;;;;14.51;89.73;101710.00;5030678;28;20200;-70
2023/10/10 02:45:57;;;;;;;16.60;14.90;;;;;;;14.38;89.34;101712.25;5032519;28;20211;-71
2023/10/10 02:48:26;;;;;;;19.67;13.77;;;;;;;14.37;89.66;101717.75;5032479;28;20226;-71
2023/10/10 02:50:53;;;;;;;31.73;21.57;;;;;;;14.36;89.89;101716.91;5033175;28;20211;-70
2023/10/10 02:53:20;;;;;;;20.40;16.60;;;;;;;14.38;89.67;101709.56;5032029;28;20622;-70
2023/10/10 02:55:51;;;;;;;23.17;17.60;;;;;;;14.39;89.84;101707.69;5033859;28;20626;-70
2023/10/10 02:58:21;;;;;;;33.63;21.90;;;;;;;14.37;89.64;101707.84;5032340;28;20184;-70
2023/10/10 03:00:57;;;;;;;20.57;17.70;;;;;;;14.29;89.55;101709.56;5033953;28;20184;-70
2023/10/10 03:03:24;;;;;;;14.53;13.23;;;;;;;14.20;89.50;101711.31;5033782;28;20178;-70
2023/10/10 03:05:51;;;;;;;11.77;10.87;;;;;;;14.14;89.44;101707.38;5033458;28;20652;-70
2023/10/10 03:08:34;;;;;;;11.47;10.60;;;;;;;14.12;89.52;101711.25;5033332;28;20584;-70
2023/10/10 03:11:13;;;;;;;23.43;18.93;;;;;;;14.11;89.65;101710.38;5032021;28;20298;-70
2023/10/10 03:13:54;;;;;;;13.37;12.30;;;;;;;14.12;89.58;101705.84;5031997;28;20195;-70
2023/10/10 03:19:38;;;;;;;24.23;18.47;;;;;;;14.14;89.39;101703.84;5031996;28;20254;-70
2023/10/10 03:21:50;;;;;;;25.10;18.83;;;;;;;14.11;89.10;101706.84;5029323;28;20214;-70
2023/10/10 03:29:21;;;;;;;18.83;15.60;;;;;;;13.95;89.39;101712.03;5031941;28;20199;-70
2023/10/10 03:31:56;;;;;;;16.23;14.77;;;;;;;13.91;89.76;101711.50;5031758;28;20699;-70
2023/10/10 03:34:44;;;;;;;20.83;14.93;;;;;;;13.91;90.17;101706.13;5031875;28;20290;-70
2023/10/10 03:39:54;;;;;;;12.90;11.80;;;;;;;13.93;89.95;101714.00;5033697;28;20191;-70
2023/10/10 05:24:55;;;;;;;37.53;24.27;;;;;;;13.90;91.83;101658.72;5035337;28;20306;-70
2023/10/10 05:27:29;;;;;;;39.63;26.60;;;;;;;13.92;91.38;101654.03;5035830;28;20188;-70
2023/10/10 05:29:56;;;;;;;35.00;22.63;;;;;;;13.92;91.82;101645.97;5035355;28;20206;-70
2023/10/10 05:32:23;;;;;;;40.70;23.13;;;;;;;13.93;91.85;101652.19;5035106;28;20252;-70
2023/10/10 05:34:52;;;;;;;52.00;28.57;;;;;;;13.95;91.58;101652.91;5035434;28;20188;-70
2023/10/10 05:37:18;;;;;;;61.60;30.43;;;;;;;13.95;91.65;101651.06;5035397;28;20564;-70
2023/10/10 05:39:46;;;;;;;48.33;27.27;;;;;;;13.97;91.89;101648.19;5035042;28;20195;-70
2023/10/10 05:42:20;;;;;;;45.00;26.67;;;;;;;13.96;92.06;101643.84;5035166;28;20574;-70
2023/10/10 05:44:49;;;;;;;55.33;31.80;;;;;;;13.96;92.16;101655.41;5035277;28;20175;-70
2023/10/10 05:47:17;;;;;;;72.50;35.87;;;;;;;13.95;92.30;101652.91;5034940;28;20590;-70
2023/10/10 05:49:43;;;;;;;69.43;33.40;;;;;;;13.96;92.25;101658.09;5034817;28;20192;-70
2023/10/10 05:52:10;;;;;;;54.87;31.43;;;;;;;13.99;92.04;101667.72;5034982;28;20621;-70
2023/10/10 05:54:36;;;;;;;53.73;30.67;;;;;;;14.02;92.12;101665.56;5034783;28;20242;-70
2023/10/10 05:57:05;;;;;;;63.43;30.77;;;;;;;14.05;92.15;101669.78;5034719;28;20180;-70
2023/10/10 05:59:33;;;;;;;55.20;30.33;;;;;;;14.07;92.45;101657.91;5035175;28;20184;-70
2023/10/10 06:02:01;;;;;;;61.03;33.40;;;;;;;14.09;92.15;101668.50;5034681;28;20278;-70
2023/10/10 06:04:28;;;;;;;55.43;30.57;;;;;;;14.09;92.30;101668.50;5034812;28;20190;-70
2023/10/10 06:06:54;;;;;;;52.53;30.30;;;;;;;14.11;92.19;101658.44;5034713;28;20559;-70
2023/10/10 06:09:26;;;;;;;49.30;28.60;;;;;;;14.11;92.62;101655.75;5034724;28;20196;-70
2023/10/10 06:11:54;;;;;;;52.57;30.60;;;;;;;14.11;92.43;101650.38;5034475;28;20207;-71
2023/10/10 06:14:21;;;;;;;55.70;29.77;;;;;;;14.11;91.92;101645.00;5034245;28;20637;-71
2023/10/10 06:16:47;;;;;;;48.13;26.63;;;;;;;14.10;92.26;101640.63;5034627;28;20176;-70
2023/10/10 06:19:20;;;;;;;43.60;25.53;;;;;;;14.10;92.18;101648.69;5034238;28;20250;-70
2023/10/10 06:21:47;;;;;;;47.13;29.10;;;;;;;14.09;92.61;101645.13;5034359;28;20215;-70
2023/10/10 06:24:13;;;;;;;45.70;28.17;;;;;;;14.09;92.12;101649.66;5034431;28;20222;-70
2023/10/10 06:26:46;;;;;;;53.20;30.70;;;;;;;14.06;92.54;101645.44;5034357;28;20203;-70
2023/10/10 06:29:15;;;;;;;51.13;28.60;;;;;;;14.05;92.68;101635.69;5034707;28;20182;-70
2023/10/10 06:31:44;;;;;;;42.03;26.37;;;;;;;14.05;91.97;101633.00;5034181;28;20207;-71
2023/10/10 06:34:21;;;;;;;50.93;28.40;;;;;;;14.09;92.40;101645.13;5034247;28;20195;-71
2023/10/10 06:36:49;;;;;;;66.63;35.67;;;;;;;14.11;92.15;101632.41;5034535;28;20539;-71
2023/10/10 06:41:50;;;;;;;70.13;34.77;;;;;;;14.08;92.16;101634.56;5034110;28;20612;-70
2023/10/10 06:44:31;;;;;;;52.70;28.90;;;;;;;14.10;92.15;101635.22;5034170;28;20238;-70
2023/10/10 06:47:00;;;;;;;62.13;30.43;;;;;;;14.12;92.24;101630.56;5034082;28;20182;-70
2023/10/10 06:49:43;;;;;;;44.57;27.00;;;;;;;14.14;92.11;101636.63;5033972;28;20656;-70
2023/10/10 06:52:18;;;;;;;56.23;28.63;;;;;;;14.14;92.39;101632.09;5034049;28;20223;-70
2023/10/10 06:54:53;;;;;;;63.80;34.97;;;;;;;14.18;92.43;101632.63;5033953;28;20579;-71
2023/10/10 06:57:38;;;;;;;64.77;34.73;;;;;;;14.23;92.49;101634.84;5034152;28;20183;-71
2023/10/10 07:00:32;;;;;;;83.97;42.17;;;;;;;14.23;92.74;101630.31;5034049;28;20636;-71
2023/10/10 07:02:59;;;;;;;75.03;36.93;;;;;;;14.27;92.56;101639.78;5033765;28;20711;-70
2023/10/10 07:05:27;;;;;;;79.33;40.93;;;;;;;14.32;92.69;101634.78;5033423;28;20198;-70
2023/10/10 07:07:58;;;;;;;73.87;37.77;;;;;;;14.37;92.51;101639.75;5033450;28;20194;-70
2023/10/10 07:10:36;;;;;;;79.47;38.00;;;;;;;14.41;92.55;101638.44;5033439;28;20195;-70
2023/10/10 07:13:03;;;;;;;80.73;38.53;;;;;;;14.44;92.44;101638.13;5033295;28;20222;-70
2023/10/10 07:15:42;;;;;;;73.77;37.80;;;;;;;14.46;92.50;101644.22;5033333;28;20274;-70
2023/10/10 07:18:13;;;;;;;81.43;39.30;;;;;;;14.45;92.54;101635.28;5033645;28;20180;-70
2023/10/10 07:23:38;;;;;;;75.33;39.87;;;;;;;14.50;92.51;101632.97;5033572;28;20172;-70
2023/10/10 07:26:19;;;;;;;76.07;35.97;;;;;;;14.54;92.57;101638.91;5033552;28;20230;-70
2023/10/10 07:28:52;;;;;;;85.93;39.57;;;;;;;14.57;92.71;101639.44;5033533;28;20187;-70
2023/10/10 07:31:21;;;;;;;77.17;35.90;;;;;;;14.63;92.77;101632.59;5033412;28;20261;-71
2023/10/10 07:34:05;;;;;;;65.80;33.60;;;;;;;14.70;92.61;101635.47;5033105;28;20250;-71
2023/10/10 07:36:33;;;;;;;61.50;34.20;;;;;;;14.77;92.61;101631.16;5033156;28;20183;-71
2023/10/10 07:41:45;;;;;;;74.07;38.53;;;;;;;14.96;92.16;101628.28;5039768;28;20211;-70
2023/10/10 07:44:22;;;;;;;72.77;38.00;;;;;;;15.03;91.98;101632.03;5039852;28;20192;-70
2023/10/10 07:49:33;;;;;;;75.13;36.33;;;;;;;15.23;91.26;101620.03;5040414;28;20531;-70
2023/10/10 07:52:04;;;;;;;60.53;32.83;;;;;;;15.38;91.25;101628.34;5039677;28;20212;-71
2023/10/10 07:54:38;;;;;;;69.53;30.43;;;;;;;15.54;90.13;101625.75;5039829;28;20188;-71
2023/10/10 07:57:11;;;;;;;66.67;29.83;;;;;;;15.67;89.42;101623.47;5039905;28;20263;-71
2023/10/10 07:59:38;;;;;;;64.43;29.07;;;;;;;15.74;89.47;101623.69;5039528;28;20541;-71
2023/10/10 08:02:19;;;;;;;50.87;25.67;;;;;;;15.78;89.13;101625.03;5039410;28;20210;-70
2023/10/10 08:04:50;;;;;;;45.70;25.80;;;;;;;15.95;88.57;101626.78;5040050;28;20200;-73
2023/10/10 08:07:20;;;;;;;45.10;24.23;;;;;;;16.02;88.13;101627.78;5039995;28;20172;-73
2023/10/10 08:09:48;;;;;;;46.80;22.80;;;;;;;16.22;86.68;101618.38;5039739;28;20172;-72
2023/10/10 08:12:15;;;;;;;32.13;19.20;;;;;;;16.31;85.55;101632.72;5039246;28;20219;-71
2023/10/10 08:14:42;;;;;;;40.53;20.60;;;;;;;16.46;84.66;101629.19;5039399;28;20195;-71
2023/10/10 08:17:18;;;;;;;34.47;18.83;;;;;;;16.57;83.30;101625.38;5039340;28;20222;-72
2023/10/10 08:19:51;;;;;;;28.80;16.70;;;;;;;16.67;82.05;101628.75;5039864;28;20215;-72
2023/10/10 08:22:19;;;;;;;29.50;17.43;;;;;;;16.76;80.36;101616.91;5039366;28;20210;-72
2023/10/10 08:24:47;;;;;;;27.40;15.70;;;;;;;16.80;80.97;101623.66;5039361;28;20199;-72
2023/10/10 08:27:14;;;;;;;24.63;16.30;;;;;;;16.79;80.91;101622.00;5039509;28;20242;-72
2023/10/10 08:29:41;;;;;;;32.40;15.20;;;;;;;16.89;80.83;101609.13;5039570;28;20587;-72
2023/10/10 08:32:08;;;;;;;22.97;14.30;;;;;;;16.95;80.52;101613.00;5039367;28;20248;-72
2023/10/10 08:34:42;;;;;;;23.00;15.07;;;;;;;17.05;80.13;101621.78;5039216;28;20559;-72
2023/10/10 08:37:09;;;;;;;28.90;14.27;;;;;;;17.18;78.77;101616.69;5039207;28;20334;-72
2023/10/10 08:39:36;;;;;;;28.83;14.17;;;;;;;17.29;78.33;101620.88;5039107;28;20190;-72
2023/10/10 08:42:14;;;;;;;26.33;14.00;;;;;;;17.27;79.04;101612.91;5039563;28;20290;-72
2023/10/10 08:44:41;;;;;;;25.17;14.20;;;;;;;17.32;79.02;101607.84;5039703;28;20179;-72
2023/10/10 08:47:19;;;;;;;18.33;13.63;;;;;;;17.35;78.98;101607.50;5039338;28;20206;-72
2023/10/10 08:49:47;;;;;;;17.30;12.60;;;;;;;17.43;78.37;101603.94;5036391;28;20183;-72
2023/10/10 08:52:17;;;;;;;23.13;12.13;;;;;;;17.53;77.30;101609.13;5036013;28;20218;-72
2023/10/10 08:54:44;;;;;;;19.20;12.47;;;;;;;17.65;76.29;101607.78;5036642;28;20184;-73
2023/10/10 08:57:11;;;;;;;19.80;10.47;;;;;;;17.83;74.06;101621.00;5035864;28;20727;-73
2023/10/10 08:59:42;;;;;;;19.73;10.90;;;;;;;17.77;74.98;101617.16;5034733;28;20188;-73
2023/10/10 09:02:12;;;;;;;16.17;10.43;;;;;;;17.94;71.89;101616.06;5036090;28;20626;-72
2023/10/10 09:04:39;;;;;;;12.70;10.30;;;;;;;17.97;73.63;101618.41;5036017;28;20195;-73
2023/10/10 09:07:11;;;;;;;9.80;8.93;;;;;;;17.90;72.88;101622.84;5035640;28;20192;-73
2023/10/10 09:09:39;;;;;;;12.67;9.53;;;;;;;17.96;70.96;101616.72;5035700;28;20183;-72
2023/10/10 09:12:14;;;;;;;10.07;9.07;;;;;;;17.95;71.73;101616.91;5036025;28;20265;-72
2023/10/10 09:14:43;;;;;;;18.70;9.93;;;;;;;18.08;71.51;101622.56;5035714;28;20202;-72
2023/10/10 09:17:35;;;;;;;9.27;8.47;;;;;;;18.08;70.87;101615.28;5035542;28;20188;-72
2023/10/10 09:20:22;;;;;;;11.10;8.70;;;;;;;18.09;68.86;101611.56;5036025;28;20235;-72
2023/10/10 09:23:04;;;;;;;10.63;8.63;;;;;;;18.21;70.07;101620.09;5035726;28;20566;-72
2023/10/10 09:25:48;;;;;;;15.77;8.57;;;;;;;18.22;70.33;101611.81;5035949;28;20234;-72
2023/10/10 09:28:16;;;;;;;10.23;8.80;;;;;;;18.21;69.41;101607.41;5035611;28;20168;-72
2023/10/10 09:30:50;;;;;;;11.40;7.77;;;;;;;18.29;69.19;101611.91;5035177;28;20187;-71
2023/10/10 09:36:04;;;;;;;15.50;7.93;;;;;;;18.43;67.98;101603.03;5035389;28;20179;-72
2023/10/10 09:38:45;;;;;;;37.07;10.10;;;;;;;18.45;68.01;101606.41;5035449;28;20168;-72
2023/10/10 09:50:00;;;;;;;8.40;7.70;;;;;;;18.71;66.87;101609.56;5034938;28;20180;-72
2023/10/10 09:58:15;;;;;;;10.97;6.83;;;;;;;18.92;63.27;101613.47;5034948;28;20184;-72
2023/10/10 10:05:59;;;;;;;10.70;6.53;;;;;;;18.93;61.27;101615.13;5035130;28;20230;-73
2023/10/10 10:08:44;;;;;;;14.10;7.40;;;;;;;18.95;62.81;101607.69;5035081;28;20187;-73
2023/10/10 10:11:27;;;;;;;7.63;7.07;;;;;;;18.94;63.40;101603.28;5034952;28;20308;-72
2023/10/10 10:14:14;;;;;;;9.83;6.77;;;;;;;18.91;62.65;101600.94;5034239;28;20629;-72
2023/10/10 10:17:18;;;;;;;6.43;6.20;;;;;;;19.09;62.66;101598.72;5034638;28;20267;-72
2023/10/10 10:19:45;;;;;;;7.30;6.90;;;;;;;19.11;61.57;101594.78;5034580;28;20180;-72
2023/10/10 10:22:21;;;;;;;10.60;6.53;;;;;;;19.03;61.75;101589.47;5034265;28;20265;-72
2023/10/10 10:25:20;;;;;;;7.27;6.70;;;;;;;19.09;61.73;101590.59;5034570;28;20579;-72
2023/10/10 10:27:49;;;;;;;7.03;6.37;;;;;;;19.14;63.45;101596.28;5034044;28;20188;-72
2023/10/10 10:32:54;;;;;;;8.03;7.53;;;;;;;19.29;60.83;101596.28;5035208;28;20208;-73
2023/10/10 10:35:22;;;;;;;6.80;6.60;;;;;;;19.17;62.83;101587.78;5034382;28;20172;-73
2023/10/10 10:37:59;;;;;;;6.97;6.53;;;;;;;19.28;62.29;101597.31;5034205;28;20219;-73
2023/10/10 10:43:13;;;;;;;11.30;6.53;;;;;;;19.39;63.47;101586.81;5034058;28;20688;-71
2023/10/10 10:45:44;;;;;;;7.13;6.53;;;;;;;19.36;61.54;101589.94;5034168;28;20703;-72
2023/10/10 10:48:31;;;;;;;10.30;7.63;;;;;;;19.45;61.26;101588.00;5034082;28;20217;-71
2023/10/10 10:51:28;;;;;;;15.37;6.67;;;;;;;19.59;62.76;101579.00;5034005;28;20575;-71
2023/10/10 10:54:02;;;;;;;7.87;7.10;;;;;;;19.70;61.70;101583.09;5034123;28;20254;-71
2023/10/10 10:59:12;;;;;;;11.13;6.40;;;;;;;19.79;62.27;101574.66;5033855;28;20238;-71
2023/10/10 11:01:57;;;;;;;11.27;6.03;;;;;;;19.89;61.15;101575.19;5033841;28;20208;-71
2023/10/10 11:04:42;;;;;;;48.27;7.07;;;;;;;20.06;61.37;101575.78;5034129;28;20184;-71
2023/10/10 11:07:16;;;;;;;6.50;6.03;;;;;;;20.16;60.55;101576.28;5034039;28;20266;-71
2023/10/10 11:10:06;;;;;;;11.57;6.67;;;;;;;20.37;59.19;101567.31;5033729;28;20676;-71
2023/10/10 11:12:36;;;;;;;8.83;6.23;;;;;;;20.38;57.60;101558.16;5032591;28;20215;-71
2023/10/10 11:15:07;;;;;;;8.00;7.00;;;;;;;20.35;58.46;101551.25;5033262;28;20203;-72
2023/10/10 11:17:38;;;;;;;9.10;8.20;;;;;;;20.40;59.25;101543.34;5033933;28;20651;-72
2023/10/10 11:20:26;;;;;;;7.73;7.03;;;;;;;20.36;59.36;101552.94;5034068;28;20573;-72
2023/10/10 11:22:57;;;;;;;9.40;8.10;;;;;;;20.41;58.90;101547.72;5033242;28;20258;-71
2023/10/10 11:25:39;;;;;;;42.53;6.87;;;;;;;20.45;59.52;101540.06;5032116;28;20183;-72
2023/10/10 11:28:21;;;;;;;7.17;6.63;;;;;;;20.55;58.59;101532.38;5033702;28;20579;-73
2023/10/10 11:30:53;;;;;;;10.73;7.20;;;;;;;20.48;56.65;101531.50;5033453;28;20168;-71
2023/10/10 11:33:55;;;;;;;10.97;7.27;;;;;;;20.42;58.49;101522.25;5033061;28;20214;-71
2023/10/10 11:36:28;;;;;;;9.33;6.70;;;;;;;20.52;59.05;101528.19;5033142;28;20528;-70
2023/10/10 11:38:56;;;;;;;6.53;6.33;;;;;;;20.74;58.14;101522.72;5033430;28;20567;-71
2023/10/10 11:41:29;;;;;;;8.47;7.30;;;;;;;20.96;57.31;101525.13;5033210;28;20207;-71
2023/10/10 11:43:59;;;;;;;14.93;7.07;;;;;;;20.95;56.68;101528.06;5033615;28;20214;-72
2023/10/10 11:46:27;;;;;;;7.33;6.50;;;;;;;20.88;56.03;101524.47;5031818;28;20635;-71
2023/10/10 11:48:54;;;;;;;7.93;6.63;;;;;;;21.03;55.95;101516.19;5033209;28;20180;-72
2023/10/10 11:51:37;;;;;;;15.77;6.90;;;;;;;21.04;56.69;101515.16;5033507;28;20210;-71
2023/10/10 11:54:04;;;;;;;7.60;7.20;;;;;;;20.98;57.34;101512.19;5033503;28;20204;-71
2023/10/10 11:56:34;;;;;;;6.70;6.50;;;;;;;21.14;58.56;101502.06;5032970;28;20184;-71
2023/10/10 11:59:13;;;;;;;7.73;6.57;;;;;;;21.23;55.98;101504.41;5033288;28;20546;-71
2023/10/10 12:01:49;;;;;;;25.17;7.07;;;;;;;21.43;56.47;101505.31;5032826;28;20222;-72
2023/10/10 12:04:32;;;;;;;7.15;6.50;;;;;;;21.39;55.43;101503.22;5032889;28;20172;-71
2023/10/10 12:07:00;;;;;;;7.45;5.78;;;;;;;21.46;55.43;101495.09;5033088;28;20176;-71
2023/10/10 12:09:31;;;;;;;7.90;6.15;;;;;;;21.57;54.29;101492.59;5033398;28;20234;-71
2023/10/10 12:11:59;;;;;;;7.13;6.45;;;;;;;21.65;54.70;101500.56;5032721;28;20219;-71
2023/10/10 12:14:30;;;;;;;6.72;6.07;;;;;;;21.64;54.58;101489.91;5032664;28;20220;-71
2023/10/10 12:17:05;;;;;;;7.28;6.25;;;;;;;21.59;54.81;101492.41;5032807;28;20180;-72
2023/10/10 12:19:36;;;;;;;6.70;6.18;;;;;;;21.57;53.94;101495.31;5033030;28;20176;-71
2023/10/10 12:22:15;;;;;;;23.63;5.85;;;;;;;21.59;55.04;101500.56;5032960;28;20215;-71
2023/10/10 12:24:42;;;;;;;13.60;6.18;;;;;;;21.52;56.45;101497.81;5035149;28;20176;-71
2023/10/10 12:27:09;;;;;;;14.05;6.53;;;;;;;21.63;56.42;101483.63;5036429;28;20188;-71
2023/10/10 12:29:40;;;;;;;8.30;6.53;;;;;;;21.63;54.65;101485.50;5036375;28;20578;-72
2023/10/10 12:32:18;;;;;;;8.57;7.25;;;;;;;21.74;55.61;101490.34;5036672;28;20283;-71
2023/10/10 12:34:47;;;;;;;15.82;7.85;;;;;;;21.80;54.58;101494.97;5036513;28;20271;-71
2023/10/10 12:37:16;;;;;;;10.88;7.90;;;;;;;21.84;55.24;101490.78;5036532;28;20199;-71
2023/10/10 12:39:44;;;;;;;8.63;6.67;;;;;;;21.93;56.56;101484.13;5036727;28;20196;-71
2023/10/10 12:42:11;;;;;;;7.47;6.85;;;;;;;22.15;56.45;101477.44;5036137;28;20203;-71
2023/10/10 12:44:37;;;;;;;11.20;6.95;;;;;;;22.16;56.04;101478.28;5036351;28;20192;-71
2023/10/10 12:47:07;;;;;;;7.03;6.05;;;;;;;22.24;55.02;101476.19;5036688;28;20180;-71
2023/10/10 12:49:37;;;;;;;6.47;6.18;;;;;;;22.31;54.71;101470.75;5036582;28;20187;-71
2023/10/10 12:52:11;;;;;;;6.80;6.30;;;;;;;22.37;54.88;101469.88;5036231;28;20583;-72
2023/10/10 12:54:38;;;;;;;8.30;6.22;;;;;;;22.37;53.87;101472.59;5036178;28;20191;-72
2023/10/10 12:57:13;;;;;;;14.13;5.75;;;;;;;22.37;53.45;101467.16;5036577;28;20172;-72
2023/10/10 12:59:46;;;;;;;7.30;6.82;;;;;;;22.40;54.63;101468.66;5035901;28;20172;-72
2023/10/10 13:02:15;;;;;;;7.03;6.07;;;;;;;22.41;54.33;101479.31;5035918;28;20605;-72
2023/10/10 13:04:46;;;;;;;6.50;5.60;;;;;;;22.35;54.28;101472.00;5035668;28;20594;-72
2023/10/10 13:07:15;;;;;;;8.10;5.43;;;;;;;22.42;53.20;101466.53;5035711;28;20188;-71
2023/10/10 13:09:43;;;;;;;7.53;6.13;;;;;;;22.47;53.06;101472.19;5035549;28;20188;-71
2023/10/10 13:12:18;;;;;;;5.85;5.40;;;;;;;22.54;53.76;101459.38;5035841;28;20254;-71
2023/10/10 13:14:50;;;;;;;13.23;5.85;;;;;;;22.67;53.23;101462.94;5035429;28;20273;-71
2023/10/10 13:19:50;;;;;;;14.10;6.65;;;;;;;22.65;51.07;101451.41;5035816;28;20186;-72
2023/10/10 13:22:21;;;;;;;8.38;5.47;;;;;;;22.63;52.75;101448.03;5035515;28;20204;-71
2023/10/10 13:24:48;;;;;;;16.05;5.53;;;;;;;22.70;51.71;101448.88;5035387;28;20184;-72
2023/10/10 13:27:16;;;;;;;20.80;6.25;;;;;;;22.74;51.97;101449.34;5035586;28;20560;-72
2023/10/10 13:29:43;;;;;;;12.40;6.40;;;;;;;22.70;51.63;101456.25;5035266;28;20192;-72
2023/10/10 13:32:10;;;;;;;10.35;6.10;;;;;;;22.70;51.33;101448.09;5035193;28;20223;-72
2023/10/10 13:34:37;;;;;;;8.95;6.60;;;;;;;22.61;52.64;101446.59;5035103;28;20203;-72
2023/10/10 13:37:07;;;;;;;7.18;5.55;;;;;;;22.56;52.65;101449.13;5034498;28;20263;-72
2023/10/10 13:39:43;;;;;;;7.57;5.43;;;;;;;22.52;52.97;101446.00;5035694;28;20362;-72
2023/10/10 13:42:14;;;;;;;17.13;6.00;;;;;;;22.48;52.51;101442.00;5035222;28;20215;-71
2023/10/10 13:44:41;;;;;;;25.42;6.38;;;;;;;22.58;52.71;101441.56;5035361;28;20169;-72
2023/10/10 13:47:08;;;;;;;22.77;5.97;;;;;;;22.53;52.07;101442.19;5035210;28;20199;-72
2023/10/10 13:49:44;;;;;;;5.82;5.32;;;;;;;22.58;51.92;101434.22;5035488;28;20195;-72
2023/10/10 13:52:12;;;;;;;16.63;5.90;;;;;;;22.59;52.22;101438.63;5035105;28;20211;-73
2023/10/10 13:54:39;;;;;;;5.82;5.32;;;;;;;22.51;52.95;101438.00;5035023;28;20212;-72
2023/10/10 13:57:07;;;;;;;9.57;6.05;;;;;;;22.55;53.17;101434.66;5035094;28;20236;-72
2023/10/10 13:59:33;;;;;;;9.98;5.13;;;;;;;22.59;52.09;101435.91;5034794;28;20188;-72
2023/10/10 14:02:03;;;;;;;15.10;6.63;;;;;;;22.67;50.34;101440.28;5034620;28;20767;-72
2023/10/10 14:04:45;;;;;;;6.70;6.05;;;;;;;22.64;50.17;101430.66;5035253;28;20532;-72
2023/10/10 14:07:14;;;;;;;7.07;5.50;;;;;;;22.60;50.78;101432.13;5034579;28;20180;-72
2023/10/10 14:09:41;;;;;;;10.38;6.05;;;;;;;22.68;50.83;101423.72;5034541;28;20188;-72
2023/10/10 14:12:26;;;;;;;13.10;4.82;;;;;;;22.67;49.42;101429.38;5034586;28;20274;-72
2023/10/10 14:14:52;;;;;;;10.50;5.53;;;;;;;22.71;50.82;101419.75;5034250;28;20226;-72
2023/10/10 14:17:19;;;;;;;25.65;5.43;;;;;;;22.78;48.71;101423.31;5034428;28;20195;-72
2023/10/10 14:19:45;;;;;;;8.05;5.82;;;;;;;22.69;50.76;101421.88;5034338;28;20194;-72
2023/10/10 14:22:12;;;;;;;17.65;6.03;;;;;;;22.66;50.29;101416.81;5034276;28;20619;-72
2023/10/10 14:24:39;;;;;;;22.30;5.65;;;;;;;22.75;50.81;101410.94;5034741;28;20661;-72
2023/10/10 14:27:05;;;;;;;6.93;6.30;;;;;;;22.64;48.78;101408.84;5034541;28;20603;-72
2023/10/10 14:29:41;;;;;;;10.88;6.22;;;;;;;22.65;48.97;101410.53;5034139;28;20207;-72
2023/10/10 14:32:10;;;;;;;6.43;5.40;;;;;;;22.61;49.55;101408.44;5034039;28;20303;-72
2023/10/10 14:34:57;;;;;;;5.25;5.00;;;;;;;22.76;48.80;101401.69;5034260;28;20196;-72